Time;durP1;ratioP1;P1;durP2;ratioP2;P2;SDS_P1;SDS_P2;PMS_P1;PMS_P2;Temp;Humidity;BMP_temperature;BMP_pressure;BME280_temperature;BME280_humidity;BME280_pressure;Samples;Min_cycle;Max_cycle;Signal;HPM_P1;HPM_P2
2024/01/15 00:01:17;;;;;;;47.40;16.50;;;;;;;;;;5008828;28;20040;-50
2024/01/15 00:03:43;;;;;;;46.00;18.20;;;;;;;;;;5013783;28;20388;-52
2024/01/15 00:06:09;;;;;;;56.03;19.83;;;;;;;;;;5010430;28;20052;-50
2024/01/15 00:08:35;;;;;;;59.83;19.75;;;;;;;;;;5011944;28;20064;-53
2024/01/15 00:11:01;;;;;;;64.10;20.48;;;;;;;;;;5010983;28;20038;-54
2024/01/15 00:13:27;;;;;;;58.70;19.95;;;;;;;;;;5018411;28;20033;-58
2024/01/15 00:15:53;;;;;;;63.22;21.85;;;;;;;;;;5007386;28;20034;-53
2024/01/15 00:18:19;;;;;;;71.60;20.10;;;;;;;;;;5014761;28;20087;-58
2024/01/15 00:20:45;;;;;;;70.40;24.27;;;;;;;;;;5010940;28;20029;-51
2024/01/15 00:23:11;;;;;;;70.47;20.55;;;;;;;;;;5006598;28;20037;-53
2024/01/15 00:25:37;;;;;;;72.18;21.75;;;;;;;;;;5008767;28;20029;-54
2024/01/15 00:28:03;;;;;;;62.92;19.83;;;;;;;;;;5014077;28;20072;-52
2024/01/15 00:30:29;;;;;;;63.55;22.63;;;;;;;;;;5010575;28;20044;-54
2024/01/15 00:32:55;;;;;;;70.05;22.13;;;;;;;;;;5011325;28;20152;-55
2024/01/15 00:35:20;;;;;;;63.28;20.83;;;;;;;;;;5011546;28;20087;-52
2024/01/15 00:37:46;;;;;;;64.47;22.40;;;;;;;;;;5009739;28;20164;-55
2024/01/15 00:40:12;;;;;;;70.97;20.77;;;;;;;;;;5011067;28;20405;-56
2024/01/15 00:42:38;;;;;;;70.35;21.67;;;;;;;;;;5010602;28;20087;-55
2024/01/15 00:45:07;;;;;;;70.28;23.08;;;;;;;;;;5010510;28;20049;-56
2024/01/15 00:47:33;;;;;;;66.85;19.92;;;;;;;;;;5011028;28;20025;-54
2024/01/15 00:49:59;;;;;;;64.82;20.88;;;;;;;;;;5010785;28;20034;-54
2024/01/15 00:52:25;;;;;;;65.50;22.55;;;;;;;;;;5009950;28;20041;-56
2024/01/15 00:54:51;;;;;;;64.60;20.48;;;;;;;;;;5010004;28;20021;-57
2024/01/15 00:57:18;;;;;;;70.47;22.05;;;;;;;;;;5010551;28;20079;-53
2024/01/15 00:59:44;;;;;;;65.60;22.67;;;;;;;;;;5010952;28;21091;-55
2024/01/15 01:02:10;;;;;;;71.03;24.52;;;;;;;;;;5010061;28;20036;-52
2024/01/15 01:04:36;;;;;;;65.65;22.35;;;;;;;;;;5013308;28;20044;-56
2024/01/15 01:07:02;;;;;;;75.38;22.60;;;;;;;;;;5008260;28;20033;-54
2024/01/15 01:09:30;;;;;;;62.00;22.55;;;;;;;;;;5008194;28;20489;-53
2024/01/15 01:11:55;;;;;;;65.63;21.40;;;;;;;;;;5004336;28;20061;-54
2024/01/15 01:14:21;;;;;;;67.95;22.38;;;;;;;;;;5013453;28;20446;-56
2024/01/15 01:16:47;;;;;;;65.28;21.90;;;;;;;;;;5005678;28;20061;-52
2024/01/15 01:19:13;;;;;;;63.63;21.80;;;;;;;;;;5005050;28;20026;-52
2024/01/15 01:21:39;;;;;;;68.68;23.33;;;;;;;;;;5003628;28;20103;-52
2024/01/15 01:24:05;;;;;;;74.82;23.45;;;;;;;;;;5009872;28;20460;-56
2024/01/15 01:26:31;;;;;;;82.70;24.08;;;;;;;;;;5006238;28;20026;-56
2024/01/15 01:28:57;;;;;;;77.68;23.63;;;;;;;;;;5008398;28;20038;-56
2024/01/15 01:31:24;;;;;;;74.55;22.60;;;;;;;;;;5010893;28;20053;-54
2024/01/15 01:33:50;;;;;;;80.07;23.73;;;;;;;;;;5010756;28;20097;-54
2024/01/15 01:36:15;;;;;;;72.72;23.38;;;;;;;;;;5009859;28;20045;-57
2024/01/15 01:38:42;;;;;;;75.40;23.05;;;;;;;;;;5008822;28;20033;-54
2024/01/15 01:41:08;;;;;;;78.50;24.35;;;;;;;;;;5010045;28;20026;-56
2024/01/15 01:43:34;;;;;;;76.45;24.65;;;;;;;;;;5008193;28;20026;-55
2024/01/15 01:46:01;;;;;;;73.32;23.55;;;;;;;;;;5009425;28;20038;-55
2024/01/15 01:48:27;;;;;;;65.70;22.38;;;;;;;;;;5010718;28;20045;-55
2024/01/15 01:50:58;;;;;;;72.80;24.27;;;;;;;;;;5009168;28;20034;-55
2024/01/15 01:53:24;;;;;;;78.88;25.17;;;;;;;;;;5008708;28;20041;-55
2024/01/15 01:55:50;;;;;;;74.47;24.90;;;;;;;;;;5007163;28;20025;-54
2024/01/15 01:58:17;;;;;;;72.82;25.77;;;;;;;;;;5008493;28;20033;-55
2024/01/15 02:00:43;;;;;;;84.75;25.08;;;;;;;;;;5009431;28;20034;-55
2024/01/15 02:03:09;;;;;;;76.38;24.52;;;;;;;;;;5008484;28;20111;-53
2024/01/15 02:05:35;;;;;;;65.35;22.83;;;;;;;;;;5010374;28;20084;-56
2024/01/15 02:08:01;;;;;;;72.57;23.40;;;;;;;;;;5008667;28;21339;-53
2024/01/15 02:10:27;;;;;;;69.82;23.90;;;;;;;;;;5008625;28;20119;-54
2024/01/15 02:12:53;;;;;;;77.00;24.83;;;;;;;;;;5008600;28;20040;-53
2024/01/15 02:15:19;;;;;;;56.58;21.17;;;;;;;;;;5010480;28;20045;-53
2024/01/15 02:17:58;;;;;;;68.82;23.75;;;;;;;;;;5012927;28;20033;-56
2024/01/15 02:20:25;;;;;;;61.38;21.40;;;;;;;;;;5013159;28;20518;-53
2024/01/15 02:22:51;;;;;;;65.88;22.13;;;;;;;;;;5013984;28;20022;-53
2024/01/15 02:25:17;;;;;;;61.20;22.30;;;;;;;;;;5012374;28;20049;-54
2024/01/15 02:27:43;;;;;;;76.82;22.77;;;;;;;;;;5013221;28;20036;-54
2024/01/15 02:30:10;;;;;;;74.53;24.92;;;;;;;;;;5013158;28;20408;-58
2024/01/15 02:32:36;;;;;;;70.65;22.25;;;;;;;;;;5013654;28;20103;-56
2024/01/15 02:35:02;;;;;;;63.42;22.25;;;;;;;;;;5013290;28;20041;-58
2024/01/15 02:37:28;;;;;;;75.10;23.25;;;;;;;;;;5013045;28;20025;-55
2024/01/15 02:39:54;;;;;;;68.03;22.35;;;;;;;;;;5012986;28;20018;-55
2024/01/15 02:42:19;;;;;;;66.45;22.58;;;;;;;;;;5012449;28;20053;-55
2024/01/15 02:44:45;;;;;;;66.82;23.13;;;;;;;;;;5027286;28;20033;-55
2024/01/15 02:47:11;;;;;;;67.43;23.98;;;;;;;;;;5012362;28;20036;-54
2024/01/15 02:49:37;;;;;;;61.03;22.67;;;;;;;;;;5012163;28;20037;-54
2024/01/15 02:52:03;;;;;;;67.15;22.50;;;;;;;;;;5026498;28;20034;-55
2024/01/15 02:54:29;;;;;;;65.70;23.05;;;;;;;;;;5012793;28;20049;-53
2024/01/15 02:56:55;;;;;;;68.10;22.58;;;;;;;;;;5012247;28;20026;-55
2024/01/15 02:59:21;;;;;;;60.70;20.60;;;;;;;;;;5011631;28;20025;-56
2024/01/15 03:01:47;;;;;;;76.70;27.05;;;;;;;;;;5012061;28;20108;-50
2024/01/15 03:04:13;;;;;;;69.28;23.88;;;;;;;;;;5013562;28;20076;-54
2024/01/15 03:06:39;;;;;;;60.72;23.25;;;;;;;;;;5013926;28;20042;-50
2024/01/15 03:09:05;;;;;;;67.20;23.13;;;;;;;;;;5013105;28;20212;-52
2024/01/15 03:11:37;;;;;;;55.92;22.52;;;;;;;;;;5013432;28;20113;-53
2024/01/15 03:14:03;;;;;;;64.80;22.05;;;;;;;;;;5010606;28;20026;-53
2024/01/15 03:16:29;;;;;;;62.60;21.48;;;;;;;;;;5011963;28;20625;-56
2024/01/15 03:18:55;;;;;;;63.63;22.00;;;;;;;;;;5011957;28;20460;-53
2024/01/15 03:21:21;;;;;;;55.60;21.35;;;;;;;;;;5013168;28;20469;-56
2024/01/15 03:23:46;;;;;;;55.90;23.67;;;;;;;;;;5012009;28;20098;-55
2024/01/15 03:26:12;;;;;;;57.40;22.38;;;;;;;;;;5011694;28;20050;-52
2024/01/15 03:28:38;;;;;;;67.72;21.80;;;;;;;;;;5011724;28;20109;-52
2024/01/15 03:31:04;;;;;;;68.22;24.15;;;;;;;;;;5009974;28;20029;-52
2024/01/15 03:33:30;;;;;;;65.63;22.02;;;;;;;;;;5012945;28;20088;-51
2024/01/15 03:35:56;;;;;;;60.83;21.38;;;;;;;;;;5015855;28;20029;-57
2024/01/15 03:38:23;;;;;;;51.75;22.02;;;;;;;;;;5011498;28;20034;-56
2024/01/15 03:40:49;;;;;;;58.97;23.30;;;;;;;;;;5011528;28;20041;-53
2024/01/15 03:43:15;;;;;;;62.05;23.40;;;;;;;;;;5011049;28;20109;-54
2024/01/15 03:45:41;;;;;;;60.00;22.67;;;;;;;;;;5012365;28;20034;-56
2024/01/15 03:48:07;;;;;;;54.80;23.05;;;;;;;;;;5013100;28;20044;-52
2024/01/15 03:50:33;;;;;;;69.88;24.98;;;;;;;;;;5013155;28;20026;-53
2024/01/15 03:52:59;;;;;;;60.47;23.80;;;;;;;;;;5013575;28;20025;-53
2024/01/15 03:55:25;;;;;;;66.65;23.73;;;;;;;;;;5011961;28;20179;-56
2024/01/15 03:57:51;;;;;;;67.20;23.48;;;;;;;;;;5010249;28;20126;-57
2024/01/15 04:00:17;;;;;;;70.38;24.65;;;;;;;;;;5009723;28;20033;-55
2024/01/15 04:02:44;;;;;;;59.00;21.08;;;;;;;;;;5013375;28;20037;-51
2024/01/15 04:05:10;;;;;;;66.07;22.23;;;;;;;;;;5011074;28;20040;-54
2024/01/15 04:07:36;;;;;;;55.50;22.92;;;;;;;;;;5010844;28;20026;-55
2024/01/15 04:10:02;;;;;;;65.65;26.13;;;;;;;;;;5011728;28;20065;-56
2024/01/15 04:12:28;;;;;;;56.38;23.15;;;;;;;;;;5008374;28;20022;-50
2024/01/15 04:14:54;;;;;;;57.78;21.85;;;;;;;;;;5012261;28;20033;-50
2024/01/15 04:17:21;;;;;;;67.65;24.63;;;;;;;;;;5007819;28;20026;-53
2024/01/15 04:19:48;;;;;;;66.53;24.15;;;;;;;;;;5011337;28;20100;-52
2024/01/15 04:22:14;;;;;;;63.45;22.60;;;;;;;;;;5010137;28;20033;-56
2024/01/15 04:24:40;;;;;;;67.53;22.20;;;;;;;;;;5008609;28;20096;-55
2024/01/15 04:27:06;;;;;;;66.47;23.85;;;;;;;;;;5010125;28;20065;-55
2024/01/15 04:29:32;;;;;;;71.32;23.25;;;;;;;;;;5010646;28;20490;-55
2024/01/15 04:31:58;;;;;;;64.43;23.05;;;;;;;;;;5009954;28;20116;-58
2024/01/15 04:34:24;;;;;;;52.55;20.10;;;;;;;;;;5010739;28;20032;-53
2024/01/15 04:36:50;;;;;;;59.83;23.58;;;;;;;;;;5013384;28;20075;-54
2024/01/15 04:39:16;;;;;;;56.95;23.00;;;;;;;;;;5009668;28;20080;-55
2024/01/15 04:41:42;;;;;;;61.55;22.05;;;;;;;;;;5010403;28;20041;-55
2024/01/15 04:44:08;;;;;;;56.20;21.65;;;;;;;;;;5009990;28;20033;-51
2024/01/15 04:46:34;;;;;;;54.35;21.05;;;;;;;;;;5010889;28;20029;-54
2024/01/15 04:48:59;;;;;;;60.22;21.63;;;;;;;;;;5010980;28;20451;-54
2024/01/15 04:51:25;;;;;;;46.72;19.38;;;;;;;;;;5010537;28;20085;-55
2024/01/15 04:53:51;;;;;;;64.28;22.20;;;;;;;;;;5009580;28;20034;-55
2024/01/15 04:56:18;;;;;;;50.45;19.08;;;;;;;;;;5007413;28;20041;-56
2024/01/15 04:58:44;;;;;;;49.25;18.95;;;;;;;;;;5010738;28;20365;-55
2024/01/15 05:01:10;;;;;;;55.17;19.45;;;;;;;;;;5009569;28;20049;-53
2024/01/15 05:03:36;;;;;;;43.38;17.90;;;;;;;;;;5007591;28;20018;-56
2024/01/15 05:06:02;;;;;;;46.67;17.42;;;;;;;;;;5010064;28;20037;-54
2024/01/15 05:08:28;;;;;;;47.38;18.60;;;;;;;;;;5009922;28;20022;-51
2024/01/15 05:10:54;;;;;;;48.70;17.45;;;;;;;;;;5009898;28;20030;-54
2024/01/15 05:13:20;;;;;;;48.00;18.98;;;;;;;;;;5010947;28;20025;-55
2024/01/15 05:15:46;;;;;;;47.03;19.02;;;;;;;;;;5009744;28;20041;-53
2024/01/15 05:18:12;;;;;;;40.67;17.05;;;;;;;;;;5009600;28;20037;-53
2024/01/15 05:20:38;;;;;;;48.42;17.90;;;;;;;;;;5007430;28;20026;-53
2024/01/15 05:23:04;;;;;;;41.25;16.55;;;;;;;;;;5010161;28;20033;-52
2024/01/15 05:25:30;;;;;;;43.40;17.15;;;;;;;;;;5011279;28;20030;-53
2024/01/15 05:27:56;;;;;;;43.35;17.05;;;;;;;;;;5009848;28;20049;-54
2024/01/15 05:30:22;;;;;;;49.03;18.65;;;;;;;;;;5010414;28;20037;-52
2024/01/15 05:32:47;;;;;;;38.70;16.52;;;;;;;;;;5009330;28;20041;-55
2024/01/15 05:35:13;;;;;;;49.72;19.33;;;;;;;;;;5008119;28;20030;-53
2024/01/15 05:37:44;;;;;;;40.08;16.08;;;;;;;;;;5009227;28;20040;-56
2024/01/15 05:40:10;;;;;;;36.95;14.27;;;;;;;;;;5009166;28;20030;-54
2024/01/15 05:42:36;;;;;;;43.22;15.27;;;;;;;;;;5005238;28;20018;-55
2024/01/15 05:45:04;;;;;;;40.42;15.18;;;;;;;;;;5008667;28;20030;-56
2024/01/15 05:47:30;;;;;;;36.53;14.65;;;;;;;;;;5009786;28;20389;-56
2024/01/15 05:49:56;;;;;;;38.70;13.85;;;;;;;;;;5008845;28;20032;-52
2024/01/15 05:52:22;;;;;;;35.08;13.73;;;;;;;;;;5007745;28;20068;-55
2024/01/15 05:54:48;;;;;;;41.75;13.60;;;;;;;;;;5007715;28;20492;-55
2024/01/15 05:57:14;;;;;;;34.42;14.85;;;;;;;;;;5008674;28;20512;-56
2024/01/15 05:59:40;;;;;;;35.35;13.25;;;;;;;;;;5010144;28;20041;-54
2024/01/15 06:02:06;;;;;;;32.65;14.57;;;;;;;;;;5010921;28;20036;-54
2024/01/15 06:04:32;;;;;;;30.42;13.93;;;;;;;;;;5007854;28;20117;-52
2024/01/15 06:06:58;;;;;;;32.60;14.05;;;;;;;;;;5010024;28;20034;-55
2024/01/15 06:09:24;;;;;;;37.38;14.02;;;;;;;;;;5008032;28;20084;-52
2024/01/15 06:11:50;;;;;;;34.80;14.85;;;;;;;;;;5002317;28;20503;-52
2024/01/15 06:14:16;;;;;;;37.00;17.25;;;;;;;;;;5006673;28;20056;-55
2024/01/15 06:16:42;;;;;;;36.45;16.42;;;;;;;;;;5007593;28;20092;-54
2024/01/15 06:19:08;;;;;;;35.08;14.93;;;;;;;;;;5012293;28;20507;-56
2024/01/15 06:21:34;;;;;;;36.88;16.52;;;;;;;;;;5017849;28;20028;-56
2024/01/15 06:24:00;;;;;;;40.05;17.58;;;;;;;;;;5013595;28;20030;-54
2024/01/15 06:26:26;;;;;;;40.33;18.13;;;;;;;;;;5011871;28;20041;-54
2024/01/15 06:28:52;;;;;;;41.55;17.73;;;;;;;;;;5012104;28;20036;-52
2024/01/15 06:31:18;;;;;;;38.72;15.85;;;;;;;;;;5007299;28;20123;-51
2024/01/15 06:33:47;;;;;;;49.28;18.70;;;;;;;;;;5001711;28;20467;-55
2024/01/15 06:36:12;;;;;;;47.58;16.50;;;;;;;;;;5001787;28;20034;-55
2024/01/15 06:38:38;;;;;;;44.28;18.33;;;;;;;;;;5007229;28;20554;-55
2024/01/15 06:41:05;;;;;;;38.35;17.25;;;;;;;;;;5010769;28;20431;-56
2024/01/15 06:43:31;;;;;;;49.40;18.65;;;;;;;;;;5014887;28;20022;-53
2024/01/15 06:45:56;;;;;;;49.17;19.95;;;;;;;;;;5024132;28;20396;-53
2024/01/15 06:48:23;;;;;;;45.10;18.75;;;;;;;;;;5010553;28;20033;-50
2024/01/15 06:50:49;;;;;;;44.40;18.13;;;;;;;;;;5017520;28;20044;-51
2024/01/15 06:53:15;;;;;;;41.40;17.33;;;;;;;;;;5014687;28;20148;-54
2024/01/15 06:55:41;;;;;;;37.75;16.88;;;;;;;;;;5020194;28;20108;-53
2024/01/15 06:58:06;;;;;;;40.80;16.75;;;;;;;;;;5010969;28;20099;-50
2024/01/15 07:00:33;;;;;;;41.35;16.85;;;;;;;;;;5009401;28;20041;-53
2024/01/15 07:02:59;;;;;;;49.90;20.70;;;;;;;;;;5014640;28;20045;-54
2024/01/15 07:05:25;;;;;;;46.53;20.23;;;;;;;;;;5017420;28;20175;-52
2024/01/15 07:07:51;;;;;;;43.75;17.70;;;;;;;;;;5018168;28;20168;-53
2024/01/15 07:10:17;;;;;;;48.55;18.48;;;;;;;;;;5022596;28;20045;-53
2024/01/15 07:12:44;;;;;;;49.55;22.00;;;;;;;;;;5021167;28;20018;-54
2024/01/15 07:15:11;;;;;;;36.28;17.30;;;;;;;;;;5020055;28;20041;-54
2024/01/15 07:17:40;;;;;;;43.53;18.25;;;;;;;;;;5021800;28;20049;-55
2024/01/15 07:20:09;;;;;;;43.92;18.08;;;;;;;;;;5019433;28;20027;-52
2024/01/15 07:22:37;;;;;;;52.10;19.15;;;;;;;;;;5018334;28;20050;-53
2024/01/15 07:25:04;;;;;;;44.55;19.15;;;;;;;;;;5019458;28;20073;-53
2024/01/15 07:27:31;;;;;;;46.63;17.60;;;;;;;;;;5016538;28;20022;-52
2024/01/15 07:29:57;;;;;;;44.75;18.13;;;;;;;;;;5017700;28;20030;-55
2024/01/15 07:32:23;;;;;;;44.30;18.17;;;;;;;;;;5021129;28;20069;-53
2024/01/15 07:34:49;;;;;;;41.80;17.35;;;;;;;;;;5016161;28;20040;-52
2024/01/15 07:37:15;;;;;;;44.83;18.58;;;;;;;;;;5015766;28;20053;-53
2024/01/15 07:39:41;;;;;;;46.70;18.52;;;;;;;;;;5021261;28;20364;-52
2024/01/15 07:42:07;;;;;;;56.30;21.40;;;;;;;;;;5014824;28;20476;-51
2024/01/15 07:44:33;;;;;;;58.97;24.15;;;;;;;;;;5015547;28;20021;-52
2024/01/15 07:46:59;;;;;;;50.75;20.50;;;;;;;;;;5017774;28;20415;-53
2024/01/15 07:49:26;;;;;;;45.25;20.10;;;;;;;;;;5017156;28;20025;-50
2024/01/15 07:51:52;;;;;;;52.53;21.77;;;;;;;;;;5020230;28;20541;-54
2024/01/15 07:54:17;;;;;;;44.47;20.33;;;;;;;;;;5017093;28;20026;-53
2024/01/15 07:56:57;;;;;;;52.22;20.98;;;;;;;;;;5021719;28;20346;-52
2024/01/15 07:59:23;;;;;;;53.08;22.10;;;;;;;;;;5013464;28;20029;-55
2024/01/15 08:01:49;;;;;;;50.75;20.15;;;;;;;;;;5024149;28;20025;-54
2024/01/15 08:04:15;;;;;;;48.15;20.73;;;;;;;;;;5012311;28;20121;-54
2024/01/15 08:06:40;;;;;;;56.63;23.05;;;;;;;;;;5025154;28;20399;-56
2024/01/15 08:09:08;;;;;;;47.10;19.92;;;;;;;;;;5019530;28;20101;-53
2024/01/15 08:11:34;;;;;;;59.92;19.63;;;;;;;;;;5010295;28;20129;-58
2024/01/15 08:14:00;;;;;;;51.88;19.80;;;;;;;;;;5011126;28;20101;-56
2024/01/15 08:16:27;;;;;;;54.97;19.40;;;;;;;;;;5020815;28;20034;-57
2024/01/15 08:18:53;;;;;;;51.20;19.77;;;;;;;;;;5016719;28;20030;-53
2024/01/15 08:21:19;;;;;;;51.60;20.55;;;;;;;;;;5017635;28;20057;-52
2024/01/15 08:23:45;;;;;;;49.78;19.98;;;;;;;;;;5009800;28;20119;-54
2024/01/15 08:26:11;;;;;;;50.42;19.90;;;;;;;;;;5013476;28;20038;-55
2024/01/15 08:28:37;;;;;;;47.83;17.38;;;;;;;;;;5008998;28;20419;-55
2024/01/15 08:31:03;;;;;;;50.03;19.40;;;;;;;;;;5014878;28;20022;-54
2024/01/15 08:33:29;;;;;;;47.17;19.58;;;;;;;;;;5006390;28;20041;-55
2024/01/15 08:35:55;;;;;;;46.65;20.10;;;;;;;;;;5009996;28;20532;-54
2024/01/15 08:38:21;;;;;;;39.50;18.40;;;;;;;;;;5021916;28;20025;-55
2024/01/15 08:40:47;;;;;;;51.85;18.45;;;;;;;;;;5013119;28;20415;-55
2024/01/15 08:43:13;;;;;;;43.78;18.60;;;;;;;;;;5013233;28;20377;-57
2024/01/15 08:45:39;;;;;;;71.30;27.75;;;;;;;;;;5019185;28;20112;-57
2024/01/15 08:48:05;;;;;;;47.20;18.83;;;;;;;;;;5008798;28;20072;-54
2024/01/15 08:50:32;;;;;;;45.90;17.88;;;;;;;;;;5016349;28;20137;-54
2024/01/15 08:52:58;;;;;;;62.25;20.25;;;;;;;;;;5014043;28;20029;-56
2024/01/15 08:55:24;;;;;;;45.53;19.65;;;;;;;;;;5009507;28;20400;-54
2024/01/15 08:57:50;;;;;;;51.67;20.75;;;;;;;;;;5010503;28;20029;-55
2024/01/15 09:00:17;;;;;;;42.47;17.70;;;;;;;;;;5015288;28;20476;-56
2024/01/15 09:02:43;;;;;;;34.70;15.10;;;;;;;;;;5021419;28;20033;-55
2024/01/15 09:05:09;;;;;;;38.15;15.20;;;;;;;;;;5010947;28;20567;-56
2024/01/15 09:07:35;;;;;;;41.13;15.65;;;;;;;;;;5015775;28;20038;-56
2024/01/15 09:10:01;;;;;;;34.92;13.93;;;;;;;;;;5013321;28;20058;-57
2024/01/15 09:12:27;;;;;;;43.88;16.77;;;;;;;;;;5009563;28;20660;-55
2024/01/15 09:14:53;;;;;;;33.58;15.27;;;;;;;;;;5009556;28;20121;-51
2024/01/15 09:17:19;;;;;;;26.63;12.27;;;;;;;;;;5017658;28;20101;-54
2024/01/15 09:19:45;;;;;;;30.38;11.40;;;;;;;;;;5012249;28;20399;-56
2024/01/15 09:22:13;;;;;;;32.25;14.02;;;;;;;;;;5014129;28;20092;-56
2024/01/15 09:24:41;;;;;;;27.52;11.70;;;;;;;;;;5011428;28;20105;-53
2024/01/15 09:27:07;;;;;;;22.77;11.57;;;;;;;;;;5016521;28;20053;-53
2024/01/15 09:29:33;;;;;;;35.30;11.90;;;;;;;;;;5009777;28;20503;-54
2024/01/15 09:31:59;;;;;;;25.40;11.30;;;;;;;;;;5016894;28;20030;-51
2024/01/15 09:34:25;;;;;;;28.45;11.35;;;;;;;;;;5006749;28;20046;-54
2024/01/15 09:36:51;;;;;;;28.70;12.60;;;;;;;;;;5008807;28;20096;-52
2024/01/15 09:39:17;;;;;;;26.23;12.70;;;;;;;;;;5013742;28;20034;-55
2024/01/15 09:41:43;;;;;;;26.45;12.73;;;;;;;;;;5010732;28;20087;-54
2024/01/15 09:44:11;;;;;;;24.70;12.45;;;;;;;;;;5013663;28;20396;-53
2024/01/15 09:46:37;;;;;;;36.20;15.18;;;;;;;;;;5015826;28;20080;-55
2024/01/15 09:49:04;;;;;;;28.42;12.52;;;;;;;;;;5001112;28;20037;-54
2024/01/15 09:51:32;;;;;;;25.88;12.23;;;;;;;;;;5010009;28;20112;-51
2024/01/15 09:53:58;;;;;;;21.70;10.68;;;;;;;;;;5017434;28;20400;-54
2024/01/15 09:56:24;;;;;;;23.35;10.68;;;;;;;;;;5018241;28;20776;-52
2024/01/15 09:58:53;;;;;;;21.38;10.30;;;;;;;;;;5012468;28;20534;-51
2024/01/15 10:01:23;;;;;;;20.52;9.07;;;;;;;;;;5001841;28;20030;-54
2024/01/15 10:03:49;;;;;;;23.52;10.68;;;;;;;;;;5012479;28;20098;-55
2024/01/15 10:06:18;;;;;;;20.80;8.98;;;;;;;;;;5011546;28;20037;-54
2024/01/15 10:08:47;;;;;;;22.58;10.23;;;;;;;;;;5022024;28;20026;-55
2024/01/15 10:11:14;;;;;;;16.70;9.38;;;;;;;;;;5012532;28;20025;-53
2024/01/15 10:13:40;;;;;;;20.70;9.70;;;;;;;;;;5011064;28;20041;-54
2024/01/15 10:16:06;;;;;;;18.45;8.23;;;;;;;;;;5010067;28;20040;-53
2024/01/15 10:18:32;;;;;;;21.27;8.77;;;;;;;;;;5014651;28;20087;-57
2024/01/15 10:20:58;;;;;;;22.65;9.07;;;;;;;;;;5005088;28;20034;-55
2024/01/15 10:23:27;;;;;;;15.73;8.20;;;;;;;;;;5013554;28;20077;-55
2024/01/15 10:25:53;;;;;;;18.00;8.80;;;;;;;;;;5009582;28;20030;-55
2024/01/15 10:28:20;;;;;;;14.00;7.55;;;;;;;;;;5016739;28;20041;-54
2024/01/15 10:30:46;;;;;;;23.38;8.80;;;;;;;;;;5012626;28;20030;-54
2024/01/15 10:33:12;;;;;;;14.98;8.90;;;;;;;;;;5013050;28;20611;-56
2024/01/15 10:35:38;;;;;;;16.98;9.50;;;;;;;;;;5015892;28;20026;-56
2024/01/15 10:38:05;;;;;;;17.60;9.60;;;;;;;;;;5020303;28;20032;-53
2024/01/15 10:40:32;;;;;;;17.63;8.73;;;;;;;;;;5010561;28;20030;-57
2024/01/15 10:42:58;;;;;;;13.77;7.93;;;;;;;;;;5016348;28;20029;-55
2024/01/15 10:45:24;;;;;;;22.10;9.52;;;;;;;;;;5015244;28;20492;-57
2024/01/15 10:47:50;;;;;;;16.30;8.35;;;;;;;;;;5013915;28;20042;-56
2024/01/15 10:50:17;;;;;;;19.40;9.18;;;;;;;;;;5015107;28;20523;-52
2024/01/15 10:52:44;;;;;;;14.68;7.07;;;;;;;;;;5013289;28;20160;-52
2024/01/15 10:55:10;;;;;;;16.98;8.80;;;;;;;;;;5017306;28;20667;-56
2024/01/15 10:57:39;;;;;;;13.23;7.43;;;;;;;;;;5015451;28;20522;-59
2024/01/15 11:00:08;;;;;;;21.08;9.50;;;;;;;;;;5010576;28;20030;-54
2024/01/15 11:02:37;;;;;;;15.95;7.05;;;;;;;;;;5007837;28;20037;-58
2024/01/15 11:05:03;;;;;;;14.75;7.75;;;;;;;;;;5018577;28;20041;-59
2024/01/15 11:07:31;;;;;;;13.00;6.88;;;;;;;;;;5013971;28;20044;-56
2024/01/15 11:10:00;;;;;;;16.90;8.20;;;;;;;;;;5014954;28;20514;-57
2024/01/15 11:12:26;;;;;;;18.65;8.00;;;;;;;;;;5013037;28;20038;-57
2024/01/15 11:14:54;;;;;;;14.73;7.00;;;;;;;;;;5015105;28;20139;-55
2024/01/15 11:17:20;;;;;;;13.20;7.25;;;;;;;;;;5007555;28;20030;-54
2024/01/15 11:19:50;;;;;;;16.83;7.95;;;;;;;;;;5013849;28;20054;-54
2024/01/15 11:22:32;;;;;;;24.13;8.30;;;;;;;;;;5010539;28;20064;-57
2024/01/15 11:25:13;;;;;;;12.93;7.40;;;;;;;;;;5007666;28;20507;-55
2024/01/15 11:27:44;;;;;;;15.68;9.23;;;;;;;;;;5011210;28;20103;-58
2024/01/15 11:30:10;;;;;;;14.85;8.55;;;;;;;;;;5013304;28;20046;-57
2024/01/15 11:32:36;;;;;;;16.70;9.93;;;;;;;;;;5008416;28;20037;-57
2024/01/15 11:35:03;;;;;;;24.55;12.27;;;;;;;;;;5012131;28;20160;-56
2024/01/15 11:37:55;;;;;;;19.17;11.07;;;;;;;;;;5009692;28;20051;-57
2024/01/15 11:40:37;;;;;;;24.48;11.55;;;;;;;;;;5009639;28;20033;-57
2024/01/15 11:43:04;;;;;;;23.85;13.38;;;;;;;;;;5018706;28;20025;-58
2024/01/15 11:45:31;;;;;;;25.20;13.10;;;;;;;;;;5010221;28;20038;-55
2024/01/15 11:48:06;;;;;;;26.73;13.52;;;;;;;;;;5008419;28;20570;-54
2024/01/15 11:50:32;;;;;;;26.92;14.57;;;;;;;;;;5010451;28;20082;-54
2024/01/15 11:53:01;;;;;;;22.42;11.98;;;;;;;;;;5018029;28;20110;-56
2024/01/15 11:55:31;;;;;;;30.48;12.43;;;;;;;;;;5010920;28;20586;-53
2024/01/15 11:57:58;;;;;;;25.85;13.98;;;;;;;;;;5009444;28;20088;-57
2024/01/15 12:00:24;;;;;;;24.55;11.52;;;;;;;;;;5009075;28;20034;-58
2024/01/15 12:02:53;;;;;;;22.55;12.68;;;;;;;;;;5010838;28;20032;-58
2024/01/15 12:05:20;;;;;;;23.92;11.88;;;;;;;;;;5009151;28;20053;-56
2024/01/15 12:07:49;;;;;;;24.73;13.27;;;;;;;;;;5015145;28;20036;-59
2024/01/15 12:10:21;;;;;;;26.77;13.68;;;;;;;;;;5006050;28;20427;-57
2024/01/15 12:12:52;;;;;;;27.67;12.60;;;;;;;;;;5016647;28;20067;-57
2024/01/15 12:15:18;;;;;;;28.50;13.65;;;;;;;;;;5009085;28;20117;-55
2024/01/15 12:17:44;;;;;;;33.88;14.88;;;;;;;;;;5007874;28;20713;-55
2024/01/15 12:20:11;;;;;;;28.83;14.77;;;;;;;;;;5010337;28;20034;-55
2024/01/15 12:22:37;;;;;;;33.05;14.75;;;;;;;;;;5011559;28;20054;-55
2024/01/15 12:25:03;;;;;;;35.65;14.05;;;;;;;;;;5002672;28;20026;-57
2024/01/15 12:27:30;;;;;;;37.40;13.75;;;;;;;;;;5010990;28;20056;-57
2024/01/15 12:29:55;;;;;;;26.10;13.90;;;;;;;;;;5012585;28;20120;-58
2024/01/15 12:32:21;;;;;;;28.17;14.45;;;;;;;;;;5009116;28;20112;-57
2024/01/15 12:34:49;;;;;;;25.90;11.60;;;;;;;;;;5010713;28;20056;-55
2024/01/15 12:37:15;;;;;;;28.23;11.75;;;;;;;;;;5010631;28;20400;-56
2024/01/15 12:39:44;;;;;;;34.22;11.68;;;;;;;;;;5011485;28;20037;-56
2024/01/15 12:42:10;;;;;;;34.15;9.77;;;;;;;;;;5011910;28;20411;-59
2024/01/15 12:44:37;;;;;;;21.80;8.40;;;;;;;;;;5010620;28;20109;-59
2024/01/15 12:47:04;;;;;;;21.60;10.70;;;;;;;;;;5007598;28;20025;-59
2024/01/15 12:49:30;;;;;;;18.48;8.85;;;;;;;;;;5010457;28;20539;-56
2024/01/15 12:52:00;;;;;;;22.35;7.72;;;;;;;;;;5012268;28;20700;-55
2024/01/15 12:54:26;;;;;;;13.13;6.18;;;;;;;;;;5011470;28;20026;-57
2024/01/15 12:56:52;;;;;;;21.13;7.07;;;;;;;;;;5012430;28;20034;-58
2024/01/15 12:59:19;;;;;;;15.82;6.03;;;;;;;;;;5013673;28;20103;-58
2024/01/15 13:01:45;;;;;;;23.77;7.07;;;;;;;;;;5001141;28;20029;-56
2024/01/15 13:04:11;;;;;;;23.38;6.50;;;;;;;;;;5012502;28;20033;-57
2024/01/15 13:06:37;;;;;;;21.00;7.03;;;;;;;;;;5014488;28;20033;-56
2024/01/15 13:09:06;;;;;;;21.75;7.03;;;;;;;;;;5008480;28;20034;-56
2024/01/15 13:11:33;;;;;;;19.65;6.18;;;;;;;;;;5010567;28;20089;-55
2024/01/15 13:13:59;;;;;;;13.80;6.38;;;;;;;;;;5012146;28;20022;-55
2024/01/15 13:16:28;;;;;;;22.88;7.22;;;;;;;;;;5007004;28;20029;-57
2024/01/15 13:18:54;;;;;;;17.02;6.00;;;;;;;;;;5012725;28;20037;-55
2024/01/15 13:21:20;;;;;;;18.33;6.05;;;;;;;;;;5008462;28;20030;-58
2024/01/15 13:23:46;;;;;;;17.58;5.55;;;;;;;;;;5012228;28;21295;-57
2024/01/15 13:26:12;;;;;;;27.05;6.82;;;;;;;;;;5007858;28;20044;-57
2024/01/15 13:28:38;;;;;;;14.57;6.43;;;;;;;;;;5012639;28;20046;-59
2024/01/15 13:31:04;;;;;;;15.85;5.95;;;;;;;;;;5021704;28;20557;-56
2024/01/15 13:33:30;;;;;;;19.08;5.95;;;;;;;;;;5014029;28;20125;-56
2024/01/15 13:35:56;;;;;;;15.07;5.70;;;;;;;;;;5009672;28;20030;-53
2024/01/15 13:38:24;;;;;;;11.60;4.70;;;;;;;;;;5008121;28;20100;-56
2024/01/15 13:40:50;;;;;;;19.25;4.47;;;;;;;;;;5009638;28;20029;-55
2024/01/15 13:43:18;;;;;;;13.55;4.35;;;;;;;;;;5005416;28;20032;-56
2024/01/15 13:45:44;;;;;;;9.90;4.20;;;;;;;;;;5016117;28;20036;-55
2024/01/15 13:48:10;;;;;;;6.60;3.78;;;;;;;;;;5010333;28;20041;-55
2024/01/15 13:50:36;;;;;;;7.80;3.63;;;;;;;;;;5010385;28;20053;-55
2024/01/15 13:53:03;;;;;;;10.75;3.60;;;;;;;;;;5010056;28;20034;-53
2024/01/15 13:55:29;;;;;;;9.68;2.53;;;;;;;;;;5007413;28;20072;-54
2024/01/15 13:57:55;;;;;;;6.55;2.92;;;;;;;;;;5008936;28;20523;-55
2024/01/15 14:00:21;;;;;;;7.68;3.08;;;;;;;;;;5009198;28;20025;-55
2024/01/15 14:02:49;;;;;;;3.97;2.42;;;;;;;;;;5005166;28;20064;-56
2024/01/15 14:05:16;;;;;;;4.70;2.00;;;;;;;;;;5002677;28;20061;-58
2024/01/15 14:07:43;;;;;;;12.48;2.40;;;;;;;;;;5014433;28;20452;-55
2024/01/15 14:10:09;;;;;;;2.42;1.80;;;;;;;;;;5009758;28;20103;-57
2024/01/15 14:12:36;;;;;;;2.38;1.83;;;;;;;;;;5015734;28;20508;-56
2024/01/15 14:15:02;;;;;;;6.57;2.45;;;;;;;;;;5008514;28;20408;-56
2024/01/15 14:17:28;;;;;;;3.58;2.45;;;;;;;;;;5007852;28;20456;-55